Time;durP1;ratioP1;P1;durP2;ratioP2;P2;SDS_P1;SDS_P2;PMS_P1;PMS_P2;Temp;Humidity;BMP_temperature;BMP_pressure;BME280_temperature;BME280_humidity;BME280_pressure;Samples;Min_cycle;Max_cycle;Signal;HPM_P1;HPM_P2
2022/03/17 00:00:57;;;;;;;;;;;;;;;17.49;49.29;101874.63;4980407;28;97694;-66
2022/03/17 00:03:23;;;;;;;;;;;;;;;17.48;49.46;101871.09;4979493;28;98786;-71
2022/03/17 00:05:49;;;;;;;;;;;;;;;17.46;49.30;101878.75;4968311;28;98424;-67
2022/03/17 00:08:16;;;;;;;;;;;;;;;17.45;49.26;101870.84;4979077;28;128129;-70
2022/03/17 00:10:42;;;;;;;;;;;;;;;17.42;49.34;101867.59;4982063;28;98228;-71
2022/03/17 00:13:08;;;;;;;;;;;;;;;17.42;49.43;101881.22;4975355;28;98224;-66
2022/03/17 00:15:34;;;;;;;;;;;;;;;17.41;49.34;101874.16;4962133;28;127385;-66
2022/03/17 00:18:00;;;;;;;;;;;;;;;17.40;49.49;101882.59;4963422;28;126058;-72
2022/03/17 00:20:26;;;;;;;;;;;;;;;17.39;49.44;101891.84;4962452;28;123782;-72
2022/03/17 00:22:52;;;;;;;;;;;;;;;17.37;49.50;101894.88;4944323;28;117411;-71
2022/03/17 00:25:17;;;;;;;;;;;;;;;17.37;49.59;101891.31;4944138;28;127921;-66
2022/03/17 00:27:43;;;;;;;;;;;;;;;17.36;49.46;101900.59;4959069;28;128398;-71
2022/03/17 00:30:10;;;;;;;;;;;;;;;17.33;49.36;101891.06;4981947;28;126651;-66
2022/03/17 00:32:36;;;;;;;;;;;;;;;17.32;49.44;101900.31;4981157;28;98094;-66
2022/03/17 00:37:46;;;;;;;;;;;;;;;17.32;49.23;101888.59;4980846;28;98593;-66
2022/03/17 00:40:13;;;;;;;;;;;;;;;17.30;49.29;101878.00;4963869;28;98506;-66
2022/03/17 00:42:39;;;;;;;;;;;;;;;17.29;49.15;101873.66;4978807;28;97905;-72
2022/03/17 00:45:05;;;;;;;;;;;;;;;17.28;49.32;101874.72;4945027;28;98222;-65
2022/03/17 00:47:31;;;;;;;;;;;;;;;17.27;49.31;101864.13;4954724;28;98914;-71
2022/03/17 00:49:57;;;;;;;;;;;;;;;17.24;49.57;101860.03;4962063;28;98232;-65
2022/03/17 00:52:23;;;;;;;;;;;;;;;17.24;49.32;101864.66;4961955;28;117613;-72
2022/03/17 00:54:49;;;;;;;;;;;;;;;17.23;49.15;101866.56;4961423;28;126956;-66
2022/03/17 00:57:15;;;;;;;;;;;;;;;17.21;49.19;101871.47;4973264;28;128443;-71
2022/03/17 00:59:41;;;;;;;;;;;;;;;17.21;49.16;101873.38;4983021;28;98830;-72
2022/03/17 01:02:07;;;;;;;;;;;;;;;17.19;49.24;101890.03;4979547;28;98150;-66
2022/03/17 01:04:33;;;;;;;;;;;;;;;17.17;49.18;101884.88;4969150;28;106453;-71
2022/03/17 01:06:59;;;;;;;;;;;;;;;17.16;49.15;101879.69;4963213;28;98305;-71
2022/03/17 01:09:28;;;;;;;;;;;;;;;17.15;49.21;101884.31;4981704;28;126491;-66
2022/03/17 01:11:54;;;;;;;;;;;;;;;17.13;49.27;101878.34;4975531;28;97958;-65
2022/03/17 01:14:20;;;;;;;;;;;;;;;17.12;49.06;101878.59;4963247;28;98668;-71
2022/03/17 01:16:46;;;;;;;;;;;;;;;17.10;49.05;101878.88;4963837;28;104769;-71
2022/03/17 01:19:12;;;;;;;;;;;;;;;17.09;48.94;101874.50;4979354;28;127555;-72
2022/03/17 01:21:38;;;;;;;;;;;;;;;17.07;49.01;101865.81;4946690;28;98132;-66
2022/03/17 01:24:04;;;;;;;;;;;;;;;17.06;49.26;101866.91;4963243;28;123928;-71
2022/03/17 01:26:30;;;;;;;;;;;;;;;17.06;49.19;101852.50;4981119;28;125895;-71
2022/03/17 01:28:56;;;;;;;;;;;;;;;17.05;49.01;101865.25;4980096;28;128349;-66
2022/03/17 01:31:23;;;;;;;;;;;;;;;17.03;49.04;101862.03;4980987;28;116094;-66
2022/03/17 01:33:50;;;;;;;;;;;;;;;17.02;49.12;101863.13;4963143;28;100167;-71
2022/03/17 01:36:15;;;;;;;;;;;;;;;17.01;48.98;101860.66;4981754;28;99023;-66
2022/03/17 01:38:41;;;;;;;;;;;;;;;17.01;48.85;101860.66;4964884;28;127423;-66
2022/03/17 01:41:07;;;;;;;;;;;;;;;16.99;49.10;101862.84;4968022;28;118659;-72
2022/03/17 01:43:33;;;;;;;;;;;;;;;16.96;49.00;101858.75;4980973;28;123394;-66
2022/03/17 01:45:59;;;;;;;;;;;;;;;16.96;49.13;101861.50;4979479;28;127935;-66
2022/03/17 01:48:25;;;;;;;;;;;;;;;16.93;48.99;101872.94;4980114;28;127530;-71
2022/03/17 01:50:53;;;;;;;;;;;;;;;16.93;49.19;101873.75;4962963;28;115496;-67
2022/03/17 01:53:21;;;;;;;;;;;;;;;16.91;49.04;101875.94;4960181;28;98848;-71
2022/03/17 01:55:47;;;;;;;;;;;;;;;16.90;48.98;101878.94;4944271;28;98480;-66
2022/03/17 01:58:14;;;;;;;;;;;;;;;16.90;49.08;101881.66;4975144;28;122415;-71
2022/03/17 02:00:40;;;;;;;;;;;;;;;16.87;48.99;101869.41;4962199;28;116354;-71
2022/03/17 02:03:07;;;;;;;;;;;;;;;16.87;49.01;101872.13;4963848;28;98956;-71
2022/03/17 02:05:34;;;;;;;;;;;;;;;16.86;49.21;101878.69;4966943;28;98806;-71
2022/03/17 02:08:01;;;;;;;;;;;;;;;16.84;49.23;101871.88;4965181;28;98216;-66
2022/03/17 02:10:27;;;;;;;;;;;;;;;16.83;49.18;101871.06;4960817;28;97804;-66
2022/03/17 02:13:11;;;;;;;;;;;;;;;16.82;49.22;101871.31;4970875;28;127466;-70
2022/03/17 02:15:37;;;;;;;;;;;;;;;16.81;48.90;101875.13;4981988;28;97895;-66
2022/03/17 02:18:06;;;;;;;;;;;;;;;16.80;48.93;101868.06;4961117;28;105894;-71
2022/03/17 02:20:32;;;;;;;;;;;;;;;16.80;49.09;101865.34;4961625;28;98111;-66
2022/03/17 02:25:50;;;;;;;;;;;;;;;16.75;48.92;101860.72;4960649;28;98002;-66
2022/03/17 02:28:16;;;;;;;;;;;;;;;16.76;48.93;101866.97;4961073;28;97774;-66
2022/03/17 02:30:42;;;;;;;;;;;;;;;16.75;48.99;101866.16;4960219;28;118204;-70
2022/03/17 02:33:09;;;;;;;;;;;;;;;16.74;49.02;101863.69;4981421;28;98519;-71
2022/03/17 02:35:37;;;;;;;;;;;;;;;16.72;48.89;101855.78;4966642;28;98263;-66
2022/03/17 02:38:03;;;;;;;;;;;;;;;16.72;48.70;101861.25;4959786;28;97822;-70
2022/03/17 02:40:33;;;;;;;;;;;;;;;16.71;48.99;101865.06;4961309;28;98085;-71
2022/03/17 02:42:59;;;;;;;;;;;;;;;16.69;48.91;101857.16;4961006;28;102438;-71
2022/03/17 02:45:25;;;;;;;;;;;;;;;16.68;48.96;101852.00;4961736;28;98261;-66
2022/03/17 02:47:51;;;;;;;;;;;;;;;16.67;48.91;101851.19;4960355;28;119236;-70
2022/03/17 02:50:18;;;;;;;;;;;;;;;16.66;48.98;101855.00;4960673;28;97805;-71
2022/03/17 02:52:43;;;;;;;;;;;;;;;16.65;48.87;101866.97;4960095;28;98002;-66
2022/03/17 02:55:12;;;;;;;;;;;;;;;16.63;49.05;101855.53;4960233;28;128729;-66
2022/03/17 02:57:43;;;;;;;;;;;;;;;16.63;48.91;101860.16;4962409;28;98165;-66
2022/03/17 03:00:10;;;;;;;;;;;;;;;16.62;48.81;101850.34;4961879;28;97737;-66
2022/03/17 03:02:36;;;;;;;;;;;;;;;16.60;49.06;101852.56;4954247;28;98935;-66
2022/03/17 03:05:03;;;;;;;;;;;;;;;16.59;48.93;101857.19;4959325;28;128480;-71
2022/03/17 03:07:28;;;;;;;;;;;;;;;16.58;48.77;101852.81;4973925;28;98422;-66
2022/03/17 03:09:55;;;;;;;;;;;;;;;16.57;48.95;101850.38;4977311;28;97830;-66
2022/03/17 03:12:21;;;;;;;;;;;;;;;16.55;49.00;101850.66;4977333;28;98684;-71
2022/03/17 03:14:47;;;;;;;;;;;;;;;16.54;49.05;101851.72;4960042;28;127786;-66
2022/03/17 03:17:13;;;;;;;;;;;;;;;16.53;49.04;101846.56;4959862;28;98364;-71
2022/03/17 03:19:39;;;;;;;;;;;;;;;16.52;48.81;101853.91;4951400;28;115521;-71
2022/03/17 03:22:05;;;;;;;;;;;;;;;16.51;48.91;101857.75;4961932;28;98514;-71
2022/03/17 03:24:31;;;;;;;;;;;;;;;16.51;48.95;101854.19;4941336;28;126381;-71
2022/03/17 03:26:57;;;;;;;;;;;;;;;16.49;48.90;101854.47;4959629;28;98395;-71
2022/03/17 03:29:23;;;;;;;;;;;;;;;16.48;48.77;101850.13;4959590;28;116883;-67
2022/03/17 03:31:53;;;;;;;;;;;;;;;16.47;49.06;101856.66;4960101;28;98632;-66
2022/03/17 03:34:19;;;;;;;;;;;;;;;16.47;48.84;101855.84;4959949;28;122392;-66
2022/03/17 03:39:30;;;;;;;;;;;;;;;16.43;48.89;101842.78;4977374;28;97768;-66
2022/03/17 03:41:56;;;;;;;;;;;;;;;16.42;48.83;101840.31;4961657;28;98455;-71
2022/03/17 03:44:22;;;;;;;;;;;;;;;16.41;48.70;101855.00;4978611;28;101904;-65
2022/03/17 03:46:48;;;;;;;;;;;;;;;16.40;48.96;101854.19;4979232;28;99082;-66
2022/03/17 03:49:13;;;;;;;;;;;;;;;16.38;49.08;101850.09;4956574;28;111863;-65
2022/03/17 03:51:39;;;;;;;;;;;;;;;16.37;48.79;101851.19;4965676;28;128262;-67
2022/03/17 03:54:17;;;;;;;;;;;;;;;16.36;48.99;101841.41;4980445;28;104721;-72
2022/03/17 03:56:53;;;;;;;;;;;;;;;16.35;48.83;101842.50;4963090;28;98014;-71
2022/03/17 03:59:21;;;;;;;;;;;;;;;16.33;48.90;101842.78;4943161;28;102249;-72
2022/03/17 04:01:56;;;;;;;;;;;;;;;16.32;48.94;101846.59;4959443;28;117442;-66
2022/03/17 04:04:24;;;;;;;;;;;;;;;16.31;48.76;101842.25;4941527;28;100367;-72
2022/03/17 04:07:03;;;;;;;;;;;;;;;16.31;48.77;101841.41;4959257;28;98339;-63
2022/03/17 04:09:33;;;;;;;;;;;;;;;16.29;49.00;101840.88;4962973;28;97945;-69
2022/03/17 04:11:59;;;;;;;;;;;;;;;16.29;49.11;101849.03;4979249;28;99482;-64
2022/03/17 04:14:25;;;;;;;;;;;;;;;16.27;49.08;101840.31;4973308;28;125926;-64
2022/03/17 04:16:51;;;;;;;;;;;;;;;16.26;48.80;101846.84;4959894;28;109669;-66
2022/03/17 04:19:17;;;;;;;;;;;;;;;16.25;48.88;101853.38;4960143;28;97952;-71
2022/03/17 04:21:44;;;;;;;;;;;;;;;16.25;48.88;101861.53;4955750;28;127864;-66
2022/03/17 04:24:10;;;;;;;;;;;;;;;16.22;48.67;101860.16;4942497;28;98601;-70
2022/03/17 04:26:35;;;;;;;;;;;;;;;16.21;48.66;101855.84;4959735;28;105949;-66
2022/03/17 04:29:02;;;;;;;;;;;;;;;16.19;48.93;101858.84;4959166;28;115655;-71
2022/03/17 04:31:29;;;;;;;;;;;;;;;16.19;48.91;101860.72;4946597;28;97932;-72
2022/03/17 04:33:54;;;;;;;;;;;;;;;16.19;49.18;101855.28;4979442;28;98972;-65
2022/03/17 04:36:21;;;;;;;;;;;;;;;16.18;49.01;101848.19;4976170;28;117890;-71
2022/03/17 04:38:47;;;;;;;;;;;;;;;16.17;48.91;101850.13;4960724;28;98045;-72
2022/03/17 04:41:13;;;;;;;;;;;;;;;16.16;49.05;101847.69;4979183;27;98961;-65
2022/03/17 04:43:39;;;;;;;;;;;;;;;16.15;48.98;101854.19;4982817;28;99397;-65
2022/03/17 04:46:07;;;;;;;;;;;;;;;16.13;49.01;101846.31;4982077;28;119548;-67
2022/03/17 04:48:33;;;;;;;;;;;;;;;16.13;48.95;101848.22;4982928;28;97826;-66
2022/03/17 04:50:59;;;;;;;;;;;;;;;16.11;48.80;101855.81;4959732;28;129314;-72
2022/03/17 04:53:27;;;;;;;;;;;;;;;16.10;49.03;101855.00;4959194;28;125685;-66
2022/03/17 04:56:14;;;;;;;;;;;;;;;16.09;49.06;101858.00;4947077;28;99770;-71
2022/03/17 04:58:41;;;;;;;;;;;;;;;16.08;48.97;101859.91;4982202;28;97749;-67
2022/03/17 05:01:07;;;;;;;;;;;;;;;16.08;48.84;101851.75;4972499;28;98880;-70
2022/03/17 05:03:33;;;;;;;;;;;;;;;16.08;48.90;101850.94;4980897;28;99625;-72
2022/03/17 05:06:00;;;;;;;;;;;;;;;16.08;48.73;101846.31;4965295;28;99057;-72
2022/03/17 05:08:26;;;;;;;;;;;;;;;16.08;49.07;101848.22;4982613;28;97706;-72
2022/03/17 05:10:54;;;;;;;;;;;;;;;16.08;48.61;101848.22;4981119;28;128362;-72
2022/03/17 05:13:22;;;;;;;;;;;;;;;16.04;48.66;101841.69;4981510;28;98197;-71
2022/03/17 05:15:48;;;;;;;;;;;;;;;15.98;48.91;101846.28;4963718;28;97969;-70
2022/03/17 05:18:14;;;;;;;;;;;;;;;15.92;48.51;101845.47;4976077;28;117858;-65
2022/03/17 05:20:41;;;;;;;;;;;;;;;15.89;48.89;101856.88;4942852;28;128598;-70
2022/03/17 05:23:11;;;;;;;;;;;;;;;15.84;48.58;101856.88;4960480;28;115702;-65
2022/03/17 05:25:40;;;;;;;;;;;;;;;15.79;48.81;101859.56;4962226;28;106119;-71
2022/03/17 05:28:08;;;;;;;;;;;;;;;15.76;48.68;101860.13;4962889;28;97891;-65
2022/03/17 05:30:34;;;;;;;;;;;;;;;15.73;48.94;101859.84;4944577;28;99260;-65
2022/03/17 05:33:00;;;;;;;;;;;;;;;15.69;48.58;101851.41;4982373;28;98192;-72
2022/03/17 05:35:26;;;;;;;;;;;;;;;15.66;48.84;101857.38;4963486;28;98245;-66
2022/03/17 05:37:53;;;;;;;;;;;;;;;15.62;48.50;101853.53;4980294;28;97853;-65
2022/03/17 05:40:19;;;;;;;;;;;;;;;15.59;48.73;101851.34;4982041;28;98178;-70
2022/03/17 05:42:47;;;;;;;;;;;;;;;15.58;48.61;101857.88;4970793;28;107488;-65
2022/03/17 05:45:13;;;;;;;;;;;;;;;15.55;48.76;101861.94;4961384;28;98048;-70
2022/03/17 05:47:40;;;;;;;;;;;;;;;15.55;49.08;101852.97;4957797;28;97886;-65
2022/03/17 05:50:09;;;;;;;;;;;;;;;15.53;48.87;101858.69;4949688;28;98729;-64
2022/03/17 05:52:35;;;;;;;;;;;;;;;15.52;48.65;101859.75;4961049;28;98155;-65
2022/03/17 05:55:01;;;;;;;;;;;;;;;15.52;48.57;101858.91;4962230;28;97999;-65
2022/03/17 05:57:27;;;;;;;;;;;;;;;15.52;48.95;101864.34;4962366;28;100657;-71
2022/03/17 05:59:53;;;;;;;;;;;;;;;15.52;48.83;101864.34;4943003;28;127440;-70
2022/03/17 06:02:19;;;;;;;;;;;;;;;15.52;48.62;101859.75;4958816;28;128326;-71
2022/03/17 06:04:46;;;;;;;;;;;;;;;15.52;48.92;101865.16;4960966;28;126644;-71
2022/03/17 06:07:11;;;;;;;;;;;;;;;15.53;48.98;101858.69;4973018;28;97931;-71
2022/03/17 06:09:38;;;;;;;;;;;;;;;15.55;48.71;101866.56;4960731;28;126210;-65
2022/03/17 06:12:05;;;;;;;;;;;;;;;15.56;48.82;101866.31;4947403;28;100701;-65
2022/03/17 06:14:32;;;;;;;;;;;;;;;15.58;48.90;101864.13;4970317;28;98495;-71
2022/03/17 06:16:59;;;;;;;;;;;;;;;15.59;48.74;101867.66;4980354;28;98309;-66
2022/03/17 06:19:24;;;;;;;;;;;;;;;15.62;48.80;101870.66;4979638;28;124817;-65
2022/03/17 06:21:51;;;;;;;;;;;;;;;15.63;48.65;101866.84;4960196;28;127329;-65
2022/03/17 06:24:17;;;;;;;;;;;;;;;15.65;48.70;101875.59;4959539;28;127966;-67
2022/03/17 06:26:42;;;;;;;;;;;;;;;15.69;48.81;101878.59;4961317;28;117424;-71
2022/03/17 06:29:08;;;;;;;;;;;;;;;15.71;48.96;101885.38;4965328;28;128109;-65
2022/03/17 06:31:38;;;;;;;;;;;;;;;15.75;48.81;101879.41;4979506;28;128225;-65
2022/03/17 06:34:04;;;;;;;;;;;;;;;15.77;48.54;101886.22;4979179;28;97913;-65
2022/03/17 06:36:30;;;;;;;;;;;;;;;15.81;48.64;101883.78;4980321;28;98073;-65
2022/03/17 06:38:56;;;;;;;;;;;;;;;15.84;48.55;101892.22;4978725;28;128450;-65
2022/03/17 06:41:22;;;;;;;;;;;;;;;15.88;48.60;101890.59;4979371;28;128610;-72
2022/03/17 06:43:47;;;;;;;;;;;;;;;15.92;48.60;101891.69;4981105;28;127046;-72
2022/03/17 06:46:14;;;;;;;;;;;;;;;15.98;48.53;101894.44;4980637;28;115579;-73
2022/03/17 06:48:40;;;;;;;;;;;;;;;16.01;48.77;101886.53;4980806;28;98808;-72
2022/03/17 06:51:06;;;;;;;;;;;;;;;16.06;48.57;101894.69;4980279;28;128621;-71
2022/03/17 06:53:32;;;;;;;;;;;;;;;16.11;48.89;101886.56;4980876;28;98109;-66
2022/03/17 06:55:58;;;;;;;;;;;;;;;16.18;48.82;101883.56;4975911;28;116669;-66
2022/03/17 06:58:24;;;;;;;;;;;;;;;16.24;48.87;101885.22;4964253;28;126060;-72
2022/03/17 07:00:50;;;;;;;;;;;;;;;16.32;48.60;101886.59;4960686;28;113169;-71
2022/03/17 07:03:16;;;;;;;;;;;;;;;16.36;48.58;101880.31;4960542;28;127831;-66
2022/03/17 07:05:42;;;;;;;;;;;;;;;16.44;48.76;101887.13;4974983;28;115889;-65
2022/03/17 07:08:08;;;;;;;;;;;;;;;16.52;48.62;101893.94;4960823;28;128092;-65
2022/03/17 07:10:34;;;;;;;;;;;;;;;16.57;48.60;101886.56;4941100;28;128815;-72
2022/03/17 07:12:59;;;;;;;;;;;;;;;16.63;48.47;101896.38;4970831;28;124917;-65
2022/03/17 07:15:25;;;;;;;;;;;;;;;16.71;48.75;101902.38;4961769;28;114823;-72
2022/03/17 07:17:51;;;;;;;;;;;;;;;16.76;48.62;101908.63;4959743;28;107352;-70
2022/03/17 07:20:19;;;;;;;;;;;;;;;16.81;48.56;101911.34;4941065;28;126008;-65
2022/03/17 07:22:50;;;;;;;;;;;;;;;16.88;48.70;101916.50;4958159;28;98066;-71
2022/03/17 07:25:17;;;;;;;;;;;;;;;16.93;48.62;101911.88;4960953;28;97691;-66
2022/03/17 07:27:44;;;;;;;;;;;;;;;17.00;48.55;101903.41;4960688;28;98886;-66
2022/03/17 07:30:22;;;;;;;;;;;;;;;17.05;48.73;101903.41;4959760;28;98921;-65
2022/03/17 07:32:49;;;;;;;;;;;;;;;17.12;48.74;101909.38;4960492;28;98172;-65
2022/03/17 07:35:15;;;;;;;;;;;;;;;17.17;48.56;101920.28;4960482;28;97988;-65
2022/03/17 07:37:41;;;;;;;;;;;;;;;17.24;48.50;101924.59;4960382;28;98859;-65
2022/03/17 07:40:08;;;;;;;;;;;;;;;17.30;48.52;101926.25;4959901;28;116511;-65
2022/03/17 07:42:34;;;;;;;;;;;;;;;17.35;48.62;101929.75;4977423;28;99394;-70
2022/03/17 07:45:00;;;;;;;;;;;;;;;17.41;48.68;101923.19;4979990;28;112212;-70
2022/03/17 07:47:26;;;;;;;;;;;;;;;17.48;48.52;101927.53;4964861;28;128091;-70
2022/03/17 07:49:52;;;;;;;;;;;;;;;17.54;48.62;101921.78;4964716;28;108500;-65
2022/03/17 07:52:18;;;;;;;;;;;;;;;17.61;48.58;101926.94;4979607;28;98653;-65
2022/03/17 07:54:46;;;;;;;;;;;;;;;17.66;48.49;101935.09;4977296;28;117588;-65
2022/03/17 07:57:12;;;;;;;;;;;;;;;17.72;48.55;101933.97;4979296;28;98841;-70
2022/03/17 07:59:38;;;;;;;;;;;;;;;17.76;48.62;101929.59;4961110;28;98699;-65
2022/03/17 08:02:04;;;;;;;;;;;;;;;17.82;48.60;101931.22;4979866;28;97940;-71
2022/03/17 08:04:31;;;;;;;;;;;;;;;17.87;48.50;101942.09;4973857;28;101500;-70
2022/03/17 08:07:00;;;;;;;;;;;;;;;17.93;48.72;101953.81;4950620;28;111180;-70
2022/03/17 08:09:27;;;;;;;;;;;;;;;17.99;48.67;101947.22;4962774;28;98028;-65
2022/03/17 08:11:53;;;;;;;;;;;;;;;18.03;48.68;101942.81;4979048;28;97855;-65
2022/03/17 08:14:19;;;;;;;;;;;;;;;18.08;48.71;101947.47;4979531;28;97918;-71
2022/03/17 08:16:44;;;;;;;;;;;;;;;18.11;48.66;101944.94;4978232;27;98438;-71
2022/03/17 08:19:11;;;;;;;;;;;;;;;18.15;48.72;101948.75;4950717;28;98659;-70
2022/03/17 08:21:38;;;;;;;;;;;;;;;18.20;48.66;101952.56;4974233;28;121432;-70
2022/03/17 08:24:04;;;;;;;;;;;;;;;18.23;48.79;101941.06;4943165;28;98085;-65
2022/03/17 08:26:30;;;;;;;;;;;;;;;18.26;48.63;101943.25;4948714;28;125109;-70
2022/03/17 08:28:57;;;;;;;;;;;;;;;18.30;48.76;101945.13;4964144;28;129002;-65
2022/03/17 08:31:23;;;;;;;;;;;;;;;18.34;48.68;101942.63;4982176;28;98277;-71
2022/03/17 08:33:50;;;;;;;;;;;;;;;18.39;48.70;101942.59;4984197;28;97784;-65
2022/03/17 08:36:16;;;;;;;;;;;;;;;18.45;48.60;101944.19;4978634;28;99034;-70
2022/03/17 08:38:42;;;;;;;;;;;;;;;18.51;48.67;101947.69;4962391;28;124662;-65
2022/03/17 08:41:08;;;;;;;;;;;;;;;18.56;48.60;101945.75;4963221;28;127817;-70
2022/03/17 08:43:33;;;;;;;;;;;;;;;18.63;48.52;101948.97;4963047;28;116985;-70
2022/03/17 08:51:28;;;;;;;;;;;;;;;18.81;48.57;101949.38;4961110;28;98599;-65
2022/03/17 08:53:56;;;;;;;;;;;;;;;18.86;48.55;101946.59;4944987;28;97875;-70
2022/03/17 08:56:22;;;;;;;;;;;;;;;18.91;48.71;101945.75;4962659;28;98399;-70
2022/03/17 08:58:48;;;;;;;;;;;;;;;18.93;48.60;101940.81;4942416;28;125794;-65
2022/03/17 09:01:14;;;;;;;;;;;;;;;18.96;48.80;101942.97;4961321;28;126900;-70
2022/03/17 09:03:40;;;;;;;;;;;;;;;18.98;48.71;101944.31;4962512;28;116922;-65
2022/03/17 09:06:05;;;;;;;;;;;;;;;19.01;48.59;101943.72;4946559;28;99043;-65
2022/03/17 09:08:31;;;;;;;;;;;;;;;19.02;48.56;101934.44;4961937;28;125127;-70
2022/03/17 09:10:57;;;;;;;;;;;;;;;19.04;48.69;101934.94;4975179;28;127773;-65
2022/03/17 09:13:25;;;;;;;;;;;;;;;19.07;48.64;101937.13;4981260;28;117504;-70
2022/03/17 09:15:51;;;;;;;;;;;;;;;19.11;48.69;101942.81;4978321;28;99332;-65
2022/03/17 09:18:17;;;;;;;;;;;;;;;19.15;48.83;101940.31;4964736;28;98629;-71
2022/03/17 09:20:43;;;;;;;;;;;;;;;19.19;48.76;101949.56;4981645;28;98952;-65
2022/03/17 09:23:09;;;;;;;;;;;;;;;19.23;48.75;101945.16;4980928;28;100010;-71
2022/03/17 09:25:35;;;;;;;;;;;;;;;19.27;48.73;101944.28;4981634;28;98324;-69
2022/03/17 09:28:02;;;;;;;;;;;;;;;19.31;48.84;101949.97;4962905;28;127903;-70
2022/03/17 09:30:28;;;;;;;;;;;;;;;19.35;48.65;101953.75;4962412;28;97921;-65
2022/03/17 09:32:59;;;;;;;;;;;;;;;19.38;48.68;101950.44;4973856;28;102951;-70
2022/03/17 09:35:25;;;;;;;;;;;;;;;19.42;48.70;101947.94;4943041;28;100884;-70
2022/03/17 09:37:51;;;;;;;;;;;;;;;19.45;48.85;101955.56;4943664;28;104209;-65
2022/03/17 09:40:17;;;;;;;;;;;;;;;19.47;48.81;101945.97;4962583;28;97832;-65
2022/03/17 09:42:43;;;;;;;;;;;;;;;19.51;48.85;101947.00;4961039;28;97779;-65
2022/03/17 09:45:09;;;;;;;;;;;;;;;19.56;49.02;101946.94;4961943;28;98705;-65
2022/03/17 09:47:39;;;;;;;;;;;;;;;19.59;48.97;101938.16;4961422;28;97684;-65
2022/03/17 09:50:07;;;;;;;;;;;;;;;19.64;48.91;101945.50;4961354;28;98277;-70
2022/03/17 09:52:37;;;;;;;;;;;;;;;19.69;48.91;101944.63;4960114;28;97811;-70
2022/03/17 09:55:04;;;;;;;;;;;;;;;19.74;48.87;101944.56;4943545;28;106428;-70
2022/03/17 09:57:29;;;;;;;;;;;;;;;19.78;48.94;101951.91;4974567;28;98888;-71
2022/03/17 09:59:59;;;;;;;;;;;;;;;19.84;48.89;101941.69;4980777;28;127396;-71
2022/03/17 10:02:24;;;;;;;;;;;;;;;19.91;48.83;101947.63;4968606;28;97998;-66
2022/03/17 10:04:51;;;;;;;;;;;;;;;19.99;48.90;101949.69;4952982;28;98829;-66
2022/03/17 10:07:18;;;;;;;;;;;;;;;20.11;48.68;101951.97;4963329;28;98310;-65
2022/03/17 10:09:47;;;;;;;;;;;;;;;20.21;48.81;101954.59;4976566;28;112625;-66
2022/03/17 10:12:14;;;;;;;;;;;;;;;20.35;48.74;101960.91;4967062;28;98130;-71
2022/03/17 10:14:42;;;;;;;;;;;;;;;20.46;48.69;101955.28;4979363;28;98589;-71
2022/03/17 10:17:31;;;;;;;;;;;;;;;20.56;48.71;101950.50;4969480;28;98359;-71
2022/03/17 10:20:19;;;;;;;;;;;;;;;20.69;48.59;101959.06;4961255;28;98334;-70
2022/03/17 10:22:49;;;;;;;;;;;;;;;20.78;48.51;101960.00;4961507;28;97977;-71
2022/03/17 10:25:19;;;;;;;;;;;;;;;20.87;48.53;101963.69;4961094;28;103324;-70
2022/03/17 10:27:45;;;;;;;;;;;;;;;20.95;48.49;101967.66;4976880;28;98102;-65
2022/03/17 10:30:32;;;;;;;;;;;;;;;20.99;48.53;101961.28;4978350;28;124011;-66
2022/03/17 10:33:01;;;;;;;;;;;;;;;21.03;48.66;101958.75;4980980;28;97910;-65
2022/03/17 10:35:36;;;;;;;;;;;;;;;21.05;48.65;101959.25;4980930;28;99205;-66
2022/03/17 10:38:14;;;;;;;;;;;;;;;21.06;48.76;101953.47;4979877;28;99071;-65
2022/03/17 10:40:41;;;;;;;;;;;;;;;21.07;48.85;101957.03;4967179;28;97869;-65
2022/03/17 10:43:17;;;;;;;;;;;;;;;21.08;48.88;101955.91;4960930;28;98140;-70
2022/03/17 10:45:43;;;;;;;;;;;;;;;21.08;48.88;101953.16;4960955;28;98721;-71
2022/03/17 10:48:09;;;;;;;;;;;;;;;21.07;49.05;101955.09;4943013;28;98811;-65
2022/03/17 10:50:45;;;;;;;;;;;;;;;21.06;49.03;101958.97;4960886;28;97984;-70
2022/03/17 10:53:11;;;;;;;;;;;;;;;21.07;49.15;101957.84;4961254;28;97793;-71
2022/03/17 10:55:38;;;;;;;;;;;;;;;21.05;49.22;101954.56;4960854;28;98483;-65
2022/03/17 10:58:12;;;;;;;;;;;;;;;21.07;49.16;101959.78;4979180;28;97812;-70
2022/03/17 11:00:45;;;;;;;;;;;;;;;21.05;49.10;101954.56;4980629;28;98896;-70
2022/03/17 11:03:11;;;;;;;;;;;;;;;21.09;49.22;101954.78;4960783;28;97917;-65
2022/03/17 11:05:37;;;;;;;;;;;;;;;21.14;49.33;101954.69;4973805;28;127894;-71
2022/03/17 11:08:04;;;;;;;;;;;;;;;21.22;48.94;101954.00;4967078;28;98231;-65
2022/03/17 11:10:30;;;;;;;;;;;;;;;21.33;48.86;101946.41;4962025;28;98624;-65
2022/03/17 11:12:56;;;;;;;;;;;;;;;21.43;48.87;101951.69;4974969;28;116533;-70
2022/03/17 11:15:29;;;;;;;;;;;;;;;21.54;48.80;101955.06;4970235;28;99029;-70
2022/03/17 11:18:02;;;;;;;;;;;;;;;21.69;48.68;101965.72;4960569;28;98466;-70
2022/03/17 11:20:28;;;;;;;;;;;;;;;21.85;48.48;101955.22;4961087;27;98340;-70
2022/03/17 11:23:35;;;;;;;;;;;;;;;22.01;48.39;101959.25;4945313;28;116280;-66
2022/03/17 11:26:01;;;;;;;;;;;;;;;22.21;48.04;101957.19;4949671;28;98329;-66
2022/03/17 11:28:34;;;;;;;;;;;;;;;22.34;48.14;101958.25;4974445;28;128577;-71
2022/03/17 11:31:03;;;;;;;;;;;;;;;22.47;47.87;101954.63;4962190;28;98130;-66
2022/03/17 11:33:32;;;;;;;;;;;;;;;22.63;47.93;101952.31;4978154;28;97801;-71
2022/03/17 11:36:00;;;;;;;;;;;;;;;22.78;47.63;101947.25;4977948;28;98148;-65
2022/03/17 11:38:30;;;;;;;;;;;;;;;22.89;47.69;101949.72;4941667;28;98470;-66
2022/03/17 11:41:08;;;;;;;;;;;;;;;22.99;47.91;101954.97;4942456;28;98118;-70
2022/03/17 11:43:41;;;;;;;;;;;;;;;23.09;47.59;101953.91;4961283;28;98632;-71
2022/03/17 11:46:13;;;;;;;;;;;;;;;23.17;47.65;101964.13;4960270;28;105993;-69
2022/03/17 11:48:39;;;;;;;;;;;;;;;23.23;47.58;101958.19;4977810;28;98925;-65
2022/03/17 11:51:06;;;;;;;;;;;;;;;23.25;47.69;101947.66;4982208;27;98633;-65
2022/03/17 11:53:37;;;;;;;;;;;;;;;23.31;47.77;101958.53;4986506;28;97809;-70
2022/03/17 11:56:03;;;;;;;;;;;;;;;23.33;47.89;101959.81;4987057;28;99060;-70
2022/03/17 11:58:31;;;;;;;;;;;;;;;23.35;48.02;101959.53;4968569;28;127764;-65
2022/03/17 12:01:04;;;;;;;;;;;;;;;23.38;47.79;101958.88;4967072;28;98688;-65
2022/03/17 12:03:38;;;;;;;;;;;;;;;23.39;47.87;101955.81;4966650;28;98025;-65
2022/03/17 12:06:15;;;;;;;;;;;;;;;23.39;47.96;101950.31;4968993;28;98737;-65
2022/03/17 12:08:47;;;;;;;;;;;;;;;23.42;47.85;101959.84;4984822;28;98423;-65
2022/03/17 12:11:13;;;;;;;;;;;;;;;23.43;48.01;101958.75;4986665;28;97870;-65
2022/03/17 12:13:40;;;;;;;;;;;;;;;23.42;47.85;101954.34;4983709;28;106779;-70
2022/03/17 12:16:07;;;;;;;;;;;;;;;23.41;47.66;101959.03;4986548;28;98392;-70
2022/03/17 12:19:01;;;;;;;;;;;;;;;23.40;48.12;101951.94;4984842;28;98280;-65
2022/03/17 12:21:58;;;;;;;;;;;;;;;23.41;47.83;101956.28;4984304;28;98215;-70
2022/03/17 12:32:21;;;;;;;;;;;;;;;23.65;47.52;101944.84;4940030;28;98369;-65
2022/03/17 12:34:49;;;;;;;;;;;;;;;23.71;47.49;101948.31;4949981;28;97846;-69
2022/03/17 12:37:15;;;;;;;;;;;;;;;23.75;47.45;101943.78;4949581;28;99429;-65
2022/03/17 12:39:41;;;;;;;;;;;;;;;23.77;47.56;101945.06;4930607;28;126467;-69
2022/03/17 12:42:21;;;;;;;;;;;;;;;23.80;47.69;101951.88;4949267;28;101365;-69
2022/03/17 12:44:48;;;;;;;;;;;;;;;23.80;47.68;101935.38;4949411;28;97848;-69
2022/03/17 12:47:14;;;;;;;;;;;;;;;23.82;47.52;101929.56;4949245;28;97846;-65
2022/03/17 12:49:41;;;;;;;;;;;;;;;23.79;47.89;101938.47;4948459;28;110930;-65
2022/03/17 12:52:17;;;;;;;;;;;;;;;23.75;47.86;101933.59;4949316;28;98080;-65
2022/03/17 12:54:44;;;;;;;;;;;;;;;23.71;47.85;101934.56;4950135;28;97766;-69
2022/03/17 12:57:10;;;;;;;;;;;;;;;23.65;47.89;101933.03;4949616;28;98156;-65